sensor_id;sensor_type;location;lat;lon;timestamp;pressure;altitude;pressure_sealevel;temperature;humidity
74627;BME280;63132;52.268;5.192;2023-05-23T00:01:01;101881.41;;;14.37;78.53
74627;BME280;63132;52.268;5.192;2023-05-23T00:03:27;101892.94;;;14.15;78.91
74627;BME280;63132;52.268;5.192;2023-05-23T00:05:53;101890.66;;;14.22;78.98
74627;BME280;63132;52.268;5.192;2023-05-23T00:08:18;101895.63;;;14.38;78.16
74627;BME280;63132;52.268;5.192;2023-05-23T00:10:44;101908.22;;;13.90;79.20
74627;BME280;63132;52.268;5.192;2023-05-23T00:13:11;101902.78;;;14.03;79.04
74627;BME280;63132;52.268;5.192;2023-05-23T00:15:40;101890.75;;;14.08;78.71
74627;BME280;63132;52.268;5.192;2023-05-23T00:18:09;101893.63;;;13.94;79.66
74627;BME280;63132;52.268;5.192;2023-05-23T00:20:38;101897.78;;;13.98;79.43
74627;BME280;63132;52.268;5.192;2023-05-23T00:23:11;101913.31;;;13.81;80.13
74627;BME280;63132;52.268;5.192;2023-05-23T00:25:46;101902.97;;;13.88;80.69
74627;BME280;63132;52.268;5.192;2023-05-23T00:28:16;101895.47;;;13.93;80.44
74627;BME280;63132;52.268;5.192;2023-05-23T00:30:41;101912.56;;;13.79;80.30
74627;BME280;63132;52.268;5.192;2023-05-23T00:33:07;101903.00;;;14.00;79.84
74627;BME280;63132;52.268;5.192;2023-05-23T00:35:32;101900.00;;;14.04;79.43
74627;BME280;63132;52.268;5.192;2023-05-23T00:37:58;101904.34;;;14.05;79.74
74627;BME280;63132;52.268;5.192;2023-05-23T00:40:23;101899.41;;;14.12;79.30
74627;BME280;63132;52.268;5.192;2023-05-23T00:42:49;101914.66;;;13.87;80.35
74627;BME280;63132;52.268;5.192;2023-05-23T00:45:14;101910.59;;;13.70;81.55
74627;BME280;63132;52.268;5.192;2023-05-23T00:47:40;101914.63;;;13.76;81.56
74627;BME280;63132;52.268;5.192;2023-05-23T00:50:07;101910.97;;;13.77;81.71
74627;BME280;63132;52.268;5.192;2023-05-23T00:52:34;101914.34;;;14.15;80.25
74627;BME280;63132;52.268;5.192;2023-05-23T00:55:00;101911.22;;;14.44;79.50
74627;BME280;63132;52.268;5.192;2023-05-23T00:57:26;101916.03;;;14.04;81.03
74627;BME280;63132;52.268;5.192;2023-05-23T00:59:51;101910.53;;;13.94;82.01
74627;BME280;63132;52.268;5.192;2023-05-23T01:02:17;101926.44;;;13.84;82.70
74627;BME280;63132;52.268;5.192;2023-05-23T01:04:43;101919.44;;;13.95;82.99
74627;BME280;63132;52.268;5.192;2023-05-23T01:07:09;101898.16;;;13.93;83.02
74627;BME280;63132;52.268;5.192;2023-05-23T01:09:35;101909.31;;;13.87;82.92
74627;BME280;63132;52.268;5.192;2023-05-23T01:12:16;101922.53;;;13.77;82.81
74627;BME280;63132;52.268;5.192;2023-05-23T01:17:28;101906.41;;;14.02;82.27
74627;BME280;63132;52.268;5.192;2023-05-23T01:20:02;101900.69;;;13.95;81.34
74627;BME280;63132;52.268;5.192;2023-05-23T01:28:31;101903.91;;;14.23;80.19
74627;BME280;63132;52.268;5.192;2023-05-23T01:30:59;101899.38;;;14.01;80.78
74627;BME280;63132;52.268;5.192;2023-05-23T01:33:27;101918.81;;;13.91;81.01
74627;BME280;63132;52.268;5.192;2023-05-23T01:35:56;101918.97;;;14.13;79.95
74627;BME280;63132;52.268;5.192;2023-05-23T01:38:24;101913.09;;;13.96;80.57
74627;BME280;63132;52.268;5.192;2023-05-23T01:40:49;101916.03;;;14.04;79.82
74627;BME280;63132;52.268;5.192;2023-05-23T01:43:15;101918.72;;;14.04;79.68
74627;BME280;63132;52.268;5.192;2023-05-23T01:45:40;101975.34;;;13.98;80.49
74627;BME280;63132;52.268;5.192;2023-05-23T01:48:07;101931.41;;;13.78;81.61
74627;BME280;63132;52.268;5.192;2023-05-23T01:50:33;101940.28;;;13.78;81.40
74627;BME280;63132;52.268;5.192;2023-05-23T01:52:59;101931.25;;;13.68;81.91
74627;BME280;63132;52.268;5.192;2023-05-23T01:55:24;101934.91;;;13.67;81.91
74627;BME280;63132;52.268;5.192;2023-05-23T01:57:52;101915.69;;;13.98;80.66
74627;BME280;63132;52.268;5.192;2023-05-23T02:00:19;101924.50;;;13.87;80.87
74627;BME280;63132;52.268;5.192;2023-05-23T02:02:45;101927.72;;;14.03;80.16
74627;BME280;63132;52.268;5.192;2023-05-23T02:05:10;101930.88;;;13.97;79.83
74627;BME280;63132;52.268;5.192;2023-05-23T02:07:36;101918.22;;;13.99;79.61
74627;BME280;63132;52.268;5.192;2023-05-23T02:10:02;101916.03;;;14.04;78.78
74627;BME280;63132;52.268;5.192;2023-05-23T02:12:28;101916.06;;;14.27;78.61
74627;BME280;63132;52.268;5.192;2023-05-23T02:14:53;101922.03;;;14.19;78.37
74627;BME280;63132;52.268;5.192;2023-05-23T02:17:19;101923.69;;;14.09;78.75
74627;BME280;63132;52.268;5.192;2023-05-23T02:19:46;101937.91;;;13.98;79.39
74627;BME280;63132;52.268;5.192;2023-05-23T02:22:12;101932.59;;;14.21;78.52
74627;BME280;63132;52.268;5.192;2023-05-23T02:24:37;101936.97;;;14.11;78.41
74627;BME280;63132;52.268;5.192;2023-05-23T02:27:03;101947.78;;;14.09;78.70
74627;BME280;63132;52.268;5.192;2023-05-23T02:29:28;101943.91;;;14.25;78.33
74627;BME280;63132;52.268;5.192;2023-05-23T02:31:53;101953.09;;;14.45;77.68
74627;BME280;63132;52.268;5.192;2023-05-23T02:34:19;101948.66;;;14.21;78.07
74627;BME280;63132;52.268;5.192;2023-05-23T02:36:44;101959.50;;;14.19;78.08
74627;BME280;63132;52.268;5.192;2023-05-23T02:39:10;101966.78;;;14.17;77.88
74627;BME280;63132;52.268;5.192;2023-05-23T02:41:35;101970.75;;;14.00;77.55
74627;BME280;63132;52.268;5.192;2023-05-23T02:44:01;101966.88;;;14.04;77.24
74627;BME280;63132;52.268;5.192;2023-05-23T02:46:26;101971.16;;;14.07;76.38
74627;BME280;63132;52.268;5.192;2023-05-23T02:48:52;101987.53;;;14.02;76.48
74627;BME280;63132;52.268;5.192;2023-05-23T02:51:17;101973.06;;;13.69;77.31
74627;BME280;63132;52.268;5.192;2023-05-23T02:53:42;101973.97;;;13.81;77.04
74627;BME280;63132;52.268;5.192;2023-05-23T02:56:07;101973.78;;;13.71;77.13
74627;BME280;63132;52.268;5.192;2023-05-23T02:58:34;101966.13;;;13.66;77.16
74627;BME280;63132;52.268;5.192;2023-05-23T03:01:04;101967.66;;;13.82;77.16
74627;BME280;63132;52.268;5.192;2023-05-23T03:03:29;101981.66;;;13.85;76.62
74627;BME280;63132;52.268;5.192;2023-05-23T03:05:58;101981.59;;;13.74;76.80
74627;BME280;63132;52.268;5.192;2023-05-23T03:08:23;101979.44;;;13.79;77.11
74627;BME280;63132;52.268;5.192;2023-05-23T03:10:49;101979.44;;;13.79;76.96
74627;BME280;63132;52.268;5.192;2023-05-23T03:13:15;101978.47;;;13.80;76.93
74627;BME280;63132;52.268;5.192;2023-05-23T03:15:40;101976.47;;;13.71;76.93
74627;BME280;63132;52.268;5.192;2023-05-23T03:18:06;101977.22;;;13.73;76.79
74627;BME280;63132;52.268;5.192;2023-05-23T03:20:31;101980.13;;;13.70;76.74
74627;BME280;63132;52.268;5.192;2023-05-23T03:22:56;101979.06;;;13.72;75.99
74627;BME280;63132;52.268;5.192;2023-05-23T03:25:22;101986.44;;;13.69;75.76
74627;BME280;63132;52.268;5.192;2023-05-23T03:27:47;101969.38;;;13.58;76.03
74627;BME280;63132;52.268;5.192;2023-05-23T03:30:12;101974.38;;;13.63;75.63
74627;BME280;63132;52.268;5.192;2023-05-23T03:32:38;101972.56;;;13.50;76.29
74627;BME280;63132;52.268;5.192;2023-05-23T03:35:03;101983.16;;;13.52;76.33
74627;BME280;63132;52.268;5.192;2023-05-23T03:37:29;101982.13;;;13.42;76.63
74627;BME280;63132;52.268;5.192;2023-05-23T03:39:54;101988.63;;;13.50;75.99
74627;BME280;63132;52.268;5.192;2023-05-23T03:42:19;102003.63;;;13.53;76.58
74627;BME280;63132;52.268;5.192;2023-05-23T03:44:44;101987.75;;;13.50;77.06
74627;BME280;63132;52.268;5.192;2023-05-23T03:47:10;102001.59;;;13.44;76.77
74627;BME280;63132;52.268;5.192;2023-05-23T03:49:35;101995.66;;;13.65;76.60
74627;BME280;63132;52.268;5.192;2023-05-23T03:52:00;101998.53;;;13.61;76.31
74627;BME280;63132;52.268;5.192;2023-05-23T03:54:26;102008.31;;;13.49;76.81
74627;BME280;63132;52.268;5.192;2023-05-23T03:56:51;102009.63;;;13.44;76.71
74627;BME280;63132;52.268;5.192;2023-05-23T03:59:17;102012.41;;;13.29;76.98
74627;BME280;63132;52.268;5.192;2023-05-23T04:01:42;102006.63;;;13.35;76.61
74627;BME280;63132;52.268;5.192;2023-05-23T04:04:08;102026.66;;;13.17;76.00
74627;BME280;63132;52.268;5.192;2023-05-23T04:06:33;102030.63;;;13.11;75.75
74627;BME280;63132;52.268;5.192;2023-05-23T04:08:58;102018.75;;;13.28;75.50
74627;BME280;63132;52.268;5.192;2023-05-23T04:11:23;102026.13;;;13.24;75.55
74627;BME280;63132;52.268;5.192;2023-05-23T04:13:49;102023.09;;;13.29;75.30
74627;BME280;63132;52.268;5.192;2023-05-23T04:16:16;102026.84;;;13.40;75.33
74627;BME280;63132;52.268;5.192;2023-05-23T04:18:41;102026.47;;;13.44;75.35
74627;BME280;63132;52.268;5.192;2023-05-23T04:21:07;102025.47;;;13.34;75.44
74627;BME280;63132;52.268;5.192;2023-05-23T04:23:32;102030.13;;;13.43;75.47
74627;BME280;63132;52.268;5.192;2023-05-23T04:25:58;102050.41;;;13.08;75.49
74627;BME280;63132;52.268;5.192;2023-05-23T04:28:25;102039.91;;;13.18;75.25
74627;BME280;63132;52.268;5.192;2023-05-23T04:30:50;102035.00;;;13.12;75.39
74627;BME280;63132;52.268;5.192;2023-05-23T04:33:16;102044.75;;;13.00;75.60
74627;BME280;63132;52.268;5.192;2023-05-23T04:35:42;102052.03;;;12.98;75.53
74627;BME280;63132;52.268;5.192;2023-05-23T04:38:09;102048.28;;;13.13;74.92
74627;BME280;63132;52.268;5.192;2023-05-23T04:40:34;102050.53;;;12.94;75.22
74627;BME280;63132;52.268;5.192;2023-05-23T04:43:00;102060.69;;;13.01;75.06
74627;BME280;63132;52.268;5.192;2023-05-23T04:45:25;102049.91;;;12.64;74.53
74627;BME280;63132;52.268;5.192;2023-05-23T04:47:52;102056.53;;;12.84;73.77
74627;BME280;63132;52.268;5.192;2023-05-23T04:50:19;102050.94;;;12.87;73.30
74627;BME280;63132;52.268;5.192;2023-05-23T04:52:47;102062.06;;;12.81;73.13
74627;BME280;63132;52.268;5.192;2023-05-23T04:55:12;102056.94;;;12.91;72.79
74627;BME280;63132;52.268;5.192;2023-05-23T04:57:37;102058.22;;;12.85;72.78
74627;BME280;63132;52.268;5.192;2023-05-23T05:00:03;102079.91;;;12.68;72.60
74627;BME280;63132;52.268;5.192;2023-05-23T05:02:38;102070.41;;;12.89;71.81
74627;BME280;63132;52.268;5.192;2023-05-23T05:05:03;102081.31;;;12.73;72.09
74627;BME280;63132;52.268;5.192;2023-05-23T05:07:29;102079.28;;;12.77;72.29
74627;BME280;63132;52.268;5.192;2023-05-23T05:09:55;102081.50;;;12.83;71.85
74627;BME280;63132;52.268;5.192;2023-05-23T05:12:20;102081.25;;;12.60;72.32
74627;BME280;63132;52.268;5.192;2023-05-23T05:14:45;102082.03;;;12.75;71.95
74627;BME280;63132;52.268;5.192;2023-05-23T05:17:11;102084.09;;;12.98;70.18
74627;BME280;63132;52.268;5.192;2023-05-23T05:19:37;102096.16;;;12.90;69.74
74627;BME280;63132;52.268;5.192;2023-05-23T05:22:02;102102.44;;;12.89;69.23
74627;BME280;63132;52.268;5.192;2023-05-23T05:24:27;102106.41;;;12.97;69.09
74627;BME280;63132;52.268;5.192;2023-05-23T05:26:54;102112.78;;;12.68;68.81
74627;BME280;63132;52.268;5.192;2023-05-23T05:29:19;102127.63;;;12.59;68.96
74627;BME280;63132;52.268;5.192;2023-05-23T05:31:45;102127.00;;;12.69;68.18
74627;BME280;63132;52.268;5.192;2023-05-23T05:34:11;102122.91;;;12.50;68.65
74627;BME280;63132;52.268;5.192;2023-05-23T05:36:37;102131.44;;;12.55;68.35
74627;BME280;63132;52.268;5.192;2023-05-23T05:39:03;102120.72;;;12.70;68.59
74627;BME280;63132;52.268;5.192;2023-05-23T05:41:28;102130.13;;;12.88;68.17
74627;BME280;63132;52.268;5.192;2023-05-23T05:43:53;102138.28;;;12.59;69.14
74627;BME280;63132;52.268;5.192;2023-05-23T05:46:19;102155.97;;;12.88;67.91
74627;BME280;63132;52.268;5.192;2023-05-23T05:48:45;102144.06;;;12.66;67.87
74627;BME280;63132;52.268;5.192;2023-05-23T05:51:10;102141.34;;;12.81;67.75
74627;BME280;63132;52.268;5.192;2023-05-23T05:53:35;102143.66;;;12.72;68.14
74627;BME280;63132;52.268;5.192;2023-05-23T05:56:01;102153.41;;;12.73;68.32
74627;BME280;63132;52.268;5.192;2023-05-23T05:58:26;102150.16;;;12.81;68.08
74627;BME280;63132;52.268;5.192;2023-05-23T06:00:51;102134.91;;;12.83;67.85
74627;BME280;63132;52.268;5.192;2023-05-23T06:03:17;102143.00;;;12.69;68.40
74627;BME280;63132;52.268;5.192;2023-05-23T06:05:43;102143.44;;;12.75;68.93
74627;BME280;63132;52.268;5.192;2023-05-23T06:08:08;102141.84;;;12.73;69.56
74627;BME280;63132;52.268;5.192;2023-05-23T06:10:36;102138.31;;;12.72;71.00
74627;BME280;63132;52.268;5.192;2023-05-23T06:13:01;102148.25;;;12.83;71.39
74627;BME280;63132;52.268;5.192;2023-05-23T06:15:26;102155.03;;;13.02;71.27
74627;BME280;63132;52.268;5.192;2023-05-23T06:17:52;102159.06;;;12.82;71.90
74627;BME280;63132;52.268;5.192;2023-05-23T06:20:17;102158.28;;;12.79;72.37
74627;BME280;63132;52.268;5.192;2023-05-23T06:22:42;102161.69;;;12.69;73.05
74627;BME280;63132;52.268;5.192;2023-05-23T06:25:08;102160.69;;;12.57;74.03
74627;BME280;63132;52.268;5.192;2023-05-23T06:27:33;102164.69;;;12.64;74.34
74627;BME280;63132;52.268;5.192;2023-05-23T06:29:58;102166.81;;;12.72;73.76
74627;BME280;63132;52.268;5.192;2023-05-23T06:32:24;102158.94;;;12.83;73.65
74627;BME280;63132;52.268;5.192;2023-05-23T06:34:49;102165.63;;;12.63;74.42
74627;BME280;63132;52.268;5.192;2023-05-23T06:37:14;102170.41;;;12.45;75.54
74627;BME280;63132;52.268;5.192;2023-05-23T06:39:40;102177.59;;;12.29;76.43
74627;BME280;63132;52.268;5.192;2023-05-23T06:42:06;102172.50;;;12.12;77.29
74627;BME280;63132;52.268;5.192;2023-05-23T06:44:31;102168.75;;;12.29;76.82
74627;BME280;63132;52.268;5.192;2023-05-23T06:46:56;102171.59;;;12.26;75.50
74627;BME280;63132;52.268;5.192;2023-05-23T06:49:23;102172.56;;;12.25;74.68
74627;BME280;63132;52.268;5.192;2023-05-23T06:51:49;102164.78;;;12.62;73.51
74627;BME280;63132;52.268;5.192;2023-05-23T06:54:21;102169.16;;;12.63;71.28
74627;BME280;63132;52.268;5.192;2023-05-23T06:56:47;102181.91;;;12.86;70.72
74627;BME280;63132;52.268;5.192;2023-05-23T06:59:12;102181.34;;;12.68;68.38
74627;BME280;63132;52.268;5.192;2023-05-23T07:01:37;102175.19;;;12.93;67.31
74627;BME280;63132;52.268;5.192;2023-05-23T07:04:03;102186.47;;;13.11;65.59
74627;BME280;63132;52.268;5.192;2023-05-23T07:06:28;102186.22;;;13.80;63.75
74627;BME280;63132;52.268;5.192;2023-05-23T07:08:54;102187.50;;;13.87;62.59
74627;BME280;63132;52.268;5.192;2023-05-23T07:11:22;102192.84;;;13.48;61.07
74627;BME280;63132;52.268;5.192;2023-05-23T07:13:47;102189.34;;;13.60;61.55
74627;BME280;63132;52.268;5.192;2023-05-23T07:16:13;102188.25;;;13.24;62.97
74627;BME280;63132;52.268;5.192;2023-05-23T07:18:38;102190.50;;;13.69;62.96
74627;BME280;63132;52.268;5.192;2023-05-23T07:21:03;102189.56;;;13.70;62.70
74627;BME280;63132;52.268;5.192;2023-05-23T07:23:31;102205.69;;;13.43;61.75
74627;BME280;63132;52.268;5.192;2023-05-23T07:25:58;102193.94;;;13.58;61.64
74627;BME280;63132;52.268;5.192;2023-05-23T07:28:24;102192.22;;;13.70;61.38
74627;BME280;63132;52.268;5.192;2023-05-23T07:30:49;102190.88;;;14.02;60.18
74627;BME280;63132;52.268;5.192;2023-05-23T07:33:15;102195.78;;;14.08;59.52
74627;BME280;63132;52.268;5.192;2023-05-23T07:35:40;102205.81;;;14.18;59.96
74627;BME280;63132;52.268;5.192;2023-05-23T07:38:06;102201.53;;;14.15;59.34
74627;BME280;63132;52.268;5.192;2023-05-23T07:40:31;102209.75;;;14.25;58.37
74627;BME280;63132;52.268;5.192;2023-05-23T07:42:56;102203.13;;;14.18;58.17
74627;BME280;63132;52.268;5.192;2023-05-23T07:45:22;102207.78;;;14.03;58.88
74627;BME280;63132;52.268;5.192;2023-05-23T07:47:47;102206.75;;;13.79;60.93
74627;BME280;63132;52.268;5.192;2023-05-23T07:50:13;102208.72;;;14.02;60.92
74627;BME280;63132;52.268;5.192;2023-05-23T07:52:38;102216.59;;;13.92;60.13
74627;BME280;63132;52.268;5.192;2023-05-23T07:55:04;102214.91;;;13.65;60.14
74627;BME280;63132;52.268;5.192;2023-05-23T07:57:29;102204.31;;;13.76;59.90
74627;BME280;63132;52.268;5.192;2023-05-23T07:59:55;102219.50;;;13.63;60.11
74627;BME280;63132;52.268;5.192;2023-05-23T08:02:21;102212.53;;;13.73;59.91
74627;BME280;63132;52.268;5.192;2023-05-23T08:04:47;102218.44;;;14.16;59.00
74627;BME280;63132;52.268;5.192;2023-05-23T08:07:12;102241.88;;;13.75;59.25
74627;BME280;63132;52.268;5.192;2023-05-23T08:09:38;102206.91;;;14.02;58.02
74627;BME280;63132;52.268;5.192;2023-05-23T08:12:05;102217.16;;;14.46;57.14
74627;BME280;63132;52.268;5.192;2023-05-23T08:14:31;102227.28;;;14.54;57.24
74627;BME280;63132;52.268;5.192;2023-05-23T08:16:56;102220.69;;;14.22;58.25
74627;BME280;63132;52.268;5.192;2023-05-23T08:19:21;102219.81;;;14.46;58.25
74627;BME280;63132;52.268;5.192;2023-05-23T08:21:47;102217.44;;;13.92;57.69
74627;BME280;63132;52.268;5.192;2023-05-23T08:24:12;102248.34;;;14.34;56.73
74627;BME280;63132;52.268;5.192;2023-05-23T08:26:38;102219.88;;;14.33;56.88
74627;BME280;63132;52.268;5.192;2023-05-23T08:29:03;102229.28;;;14.39;57.13
74627;BME280;63132;52.268;5.192;2023-05-23T08:31:29;102237.19;;;14.40;56.81
74627;BME280;63132;52.268;5.192;2023-05-23T08:33:54;102232.13;;;14.73;55.14
74627;BME280;63132;52.268;5.192;2023-05-23T08:36:20;102260.50;;;14.76;55.65
74627;BME280;63132;52.268;5.192;2023-05-23T08:38:45;102237.72;;;14.70;55.76
74627;BME280;63132;52.268;5.192;2023-05-23T08:41:20;102248.00;;;14.14;56.02
74627;BME280;63132;52.268;5.192;2023-05-23T08:43:46;102240.16;;;14.24;56.63
74627;BME280;63132;52.268;5.192;2023-05-23T08:46:12;102240.00;;;14.39;55.32
74627;BME280;63132;52.268;5.192;2023-05-23T08:48:38;102244.09;;;14.31;55.31
74627;BME280;63132;52.268;5.192;2023-05-23T08:51:04;102241.50;;;14.43;55.32
74627;BME280;63132;52.268;5.192;2023-05-23T08:53:31;102270.88;;;14.56;55.57
74627;BME280;63132;52.268;5.192;2023-05-23T08:56:01;102250.25;;;14.70;54.54
74627;BME280;63132;52.268;5.192;2023-05-23T08:58:30;102253.25;;;14.65;53.92
74627;BME280;63132;52.268;5.192;2023-05-23T09:00:57;102261.03;;;14.81;53.94
74627;BME280;63132;52.268;5.192;2023-05-23T09:03:25;102258.81;;;14.99;53.90
74627;BME280;63132;52.268;5.192;2023-05-23T09:05:52;102267.09;;;14.96;54.83
74627;BME280;63132;52.268;5.192;2023-05-23T09:08:18;102268.31;;;15.51;54.76
74627;BME280;63132;52.268;5.192;2023-05-23T09:10:44;102273.78;;;15.38;53.03
74627;BME280;63132;52.268;5.192;2023-05-23T09:13:10;102273.31;;;15.44;53.06
74627;BME280;63132;52.268;5.192;2023-05-23T09:15:35;102274.78;;;15.83;52.18
74627;BME280;63132;52.268;5.192;2023-05-23T09:18:00;102287.72;;;15.66;51.37
74627;BME280;63132;52.268;5.192;2023-05-23T09:20:26;102277.13;;;15.17;51.87
74627;BME280;63132;52.268;5.192;2023-05-23T09:22:54;102273.72;;;15.15;51.61
74627;BME280;63132;52.268;5.192;2023-05-23T09:25:19;102283.63;;;15.37;51.60
74627;BME280;63132;52.268;5.192;2023-05-23T09:27:45;102280.50;;;15.55;52.13
74627;BME280;63132;52.268;5.192;2023-05-23T09:30:11;102281.44;;;16.02;51.53
74627;BME280;63132;52.268;5.192;2023-05-23T09:32:37;102285.28;;;15.97;51.66
74627;BME280;63132;52.268;5.192;2023-05-23T09:35:06;102292.41;;;15.39;52.77
74627;BME280;63132;52.268;5.192;2023-05-23T09:37:42;102281.97;;;15.00;53.76
74627;BME280;63132;52.268;5.192;2023-05-23T09:40:11;102297.91;;;14.77;54.37
74627;BME280;63132;52.268;5.192;2023-05-23T09:42:44;102301.31;;;14.79;54.66
74627;BME280;63132;52.268;5.192;2023-05-23T09:45:11;102306.38;;;14.71;54.18
74627;BME280;63132;52.268;5.192;2023-05-23T09:47:36;102297.78;;;15.03;53.22
74627;BME280;63132;52.268;5.192;2023-05-23T09:50:02;102288.69;;;15.54;51.50
74627;BME280;63132;52.268;5.192;2023-05-23T09:52:35;102283.34;;;15.88;50.92
74627;BME280;63132;52.268;5.192;2023-05-23T09:55:01;102291.25;;;15.78;51.77
74627;BME280;63132;52.268;5.192;2023-05-23T09:57:26;102294.91;;;16.00;51.78
74627;BME280;63132;52.268;5.192;2023-05-23T09:59:52;102297.41;;;15.33;53.95
74627;BME280;63132;52.268;5.192;2023-05-23T10:05:30;102306.28;;;15.69;52.75
74627;BME280;63132;52.268;5.192;2023-05-23T10:08:00;102309.16;;;14.83;53.63
74627;BME280;63132;52.268;5.192;2023-05-23T10:10:30;102307.91;;;15.00;52.27
74627;BME280;63132;52.268;5.192;2023-05-23T10:12:57;102308.19;;;15.08;51.98
74627;BME280;63132;52.268;5.192;2023-05-23T10:15:25;102294.25;;;15.39;52.02
74627;BME280;63132;52.268;5.192;2023-05-23T10:18:04;102310.91;;;15.79;50.79
74627;BME280;63132;52.268;5.192;2023-05-23T10:20:32;102312.13;;;15.86;50.51
74627;BME280;63132;52.268;5.192;2023-05-23T10:23:00;102313.41;;;15.46;52.05
74627;BME280;63132;52.268;5.192;2023-05-23T10:25:25;102317.44;;;15.52;52.24
74627;BME280;63132;52.268;5.192;2023-05-23T10:27:54;102315.66;;;15.75;51.80
74627;BME280;63132;52.268;5.192;2023-05-23T10:30:24;102315.56;;;15.05;54.39
74627;BME280;63132;52.268;5.192;2023-05-23T10:32:50;102316.97;;;15.46;53.85
74627;BME280;63132;52.268;5.192;2023-05-23T10:38:38;102310.88;;;15.56;52.87
74627;BME280;63132;52.268;5.192;2023-05-23T10:41:10;102320.75;;;15.67;50.36
74627;BME280;63132;52.268;5.192;2023-05-23T10:43:50;102328.56;;;15.70;50.58
74627;BME280;63132;52.268;5.192;2023-05-23T10:46:19;102331.66;;;16.00;48.77
74627;BME280;63132;52.268;5.192;2023-05-23T10:48:53;102317.97;;;15.68;48.27
74627;BME280;63132;52.268;5.192;2023-05-23T10:51:21;102325.34;;;16.01;48.17
74627;BME280;63132;52.268;5.192;2023-05-23T10:53:51;102306.34;;;16.60;47.98
74627;BME280;63132;52.268;5.192;2023-05-23T10:56:21;102308.94;;;16.38;48.52
74627;BME280;63132;52.268;5.192;2023-05-23T10:58:56;102317.06;;;16.04;50.06
74627;BME280;63132;52.268;5.192;2023-05-23T11:01:23;102312.44;;;15.58;51.88
74627;BME280;63132;52.268;5.192;2023-05-23T11:03:51;102327.47;;;15.72;52.50
74627;BME280;63132;52.268;5.192;2023-05-23T11:06:42;102327.72;;;15.58;53.14
74627;BME280;63132;52.268;5.192;2023-05-23T11:09:15;102328.19;;;15.15;54.14
74627;BME280;63132;52.268;5.192;2023-05-23T11:12:06;102328.75;;;15.08;53.79
74627;BME280;63132;52.268;5.192;2023-05-23T11:16:57;102332.47;;;15.89;51.40
74627;BME280;63132;52.268;5.192;2023-05-23T11:19:25;102322.84;;;15.63;50.32
74627;BME280;63132;52.268;5.192;2023-05-23T11:22:00;102335.41;;;15.26;50.14
74627;BME280;63132;52.268;5.192;2023-05-23T11:24:50;102335.06;;;15.31;50.54
74627;BME280;63132;52.268;5.192;2023-05-23T11:27:16;102316.44;;;15.41;49.27
74627;BME280;63132;52.268;5.192;2023-05-23T11:29:55;102330.00;;;15.51;50.21
74627;BME280;63132;52.268;5.192;2023-05-23T11:32:22;102330.16;;;15.72;49.53
74627;BME280;63132;52.268;5.192;2023-05-23T11:34:47;102332.38;;;15.90;49.48
74627;BME280;63132;52.268;5.192;2023-05-23T11:37:12;102333.75;;;16.30;48.38
74627;BME280;63132;52.268;5.192;2023-05-23T11:39:38;102319.72;;;16.83;48.84
74627;BME280;63132;52.268;5.192;2023-05-23T11:42:04;102330.34;;;16.73;47.16
74627;BME280;63132;52.268;5.192;2023-05-23T11:44:30;102325.06;;;16.15;48.85
74627;BME280;63132;52.268;5.192;2023-05-23T11:47:02;102330.72;;;15.53;51.65
74627;BME280;63132;52.268;5.192;2023-05-23T11:49:33;102340.31;;;15.33;51.68
74627;BME280;63132;52.268;5.192;2023-05-23T11:51:58;102324.34;;;16.48;50.59
74627;BME280;63132;52.268;5.192;2023-05-23T11:54:25;102331.66;;;16.90;49.72
74627;BME280;63132;52.268;5.192;2023-05-23T11:56:51;102319.78;;;16.48;49.15
74627;BME280;63132;52.268;5.192;2023-05-23T11:59:16;102329.06;;;16.44;51.42
74627;BME280;63132;52.268;5.192;2023-05-23T12:01:42;102327.53;;;16.18;51.35
74627;BME280;63132;52.268;5.192;2023-05-23T12:04:08;102333.16;;;16.04;52.54
74627;BME280;63132;52.268;5.192;2023-05-23T12:06:34;102340.22;;;16.05;53.26
74627;BME280;63132;52.268;5.192;2023-05-23T12:09:00;102340.59;;;15.53;52.10
74627;BME280;63132;52.268;5.192;2023-05-23T12:11:25;102337.69;;;15.56;51.35
74627;BME280;63132;52.268;5.192;2023-05-23T12:13:51;102334.78;;;15.70;51.34
74627;BME280;63132;52.268;5.192;2023-05-23T12:16:17;102338.69;;;15.78;50.67
74627;BME280;63132;52.268;5.192;2023-05-23T12:18:42;102346.13;;;15.74;50.78
74627;BME280;63132;52.268;5.192;2023-05-23T12:21:08;102347.03;;;15.97;50.04
74627;BME280;63132;52.268;5.192;2023-05-23T12:23:33;102351.19;;;15.18;50.63
74627;BME280;63132;52.268;5.192;2023-05-23T12:26:03;102343.03;;;15.08;50.10
74627;BME280;63132;52.268;5.192;2023-05-23T12:31:18;102348.53;;;15.54;47.87
74627;BME280;63132;52.268;5.192;2023-05-23T12:33:45;102339.50;;;16.14;47.41
74627;BME280;63132;52.268;5.192;2023-05-23T12:36:20;102336.69;;;16.83;46.52
74627;BME280;63132;52.268;5.192;2023-05-23T12:38:46;102346.78;;;16.47;47.78
74627;BME280;63132;52.268;5.192;2023-05-23T12:41:14;102334.03;;;16.72;47.62
74627;BME280;63132;52.268;5.192;2023-05-23T12:43:40;102351.81;;;16.05;48.83
74627;BME280;63132;52.268;5.192;2023-05-23T12:46:08;102350.44;;;15.88;50.80
74627;BME280;63132;52.268;5.192;2023-05-23T12:48:34;102347.91;;;16.21;48.61
74627;BME280;63132;52.268;5.192;2023-05-23T12:50:59;102344.09;;;16.47;49.15
74627;BME280;63132;52.268;5.192;2023-05-23T12:53:27;102353.94;;;16.69;48.86
74627;BME280;63132;52.268;5.192;2023-05-23T12:55:52;102355.28;;;16.75;48.78
74627;BME280;63132;52.268;5.192;2023-05-23T12:58:18;102360.59;;;16.07;47.78
74627;BME280;63132;52.268;5.192;2023-05-23T13:00:44;102369.44;;;15.85;48.36
74627;BME280;63132;52.268;5.192;2023-05-23T13:03:10;102353.94;;;15.89;47.41
74627;BME280;63132;52.268;5.192;2023-05-23T13:05:35;102353.38;;;16.54;45.47
74627;BME280;63132;52.268;5.192;2023-05-23T13:08:00;102351.81;;;16.28;45.65